createdAt,value
2023-05-14T00:00:11.776Z,15.76
2023-05-14T00:03:13.342Z,15.73
2023-05-14T00:06:15.256Z,15.63
2023-05-14T00:09:16.968Z,15.56
2023-05-14T00:12:18.377Z,15.51
2023-05-14T00:15:19.799Z,15.49
2023-05-14T00:18:21.182Z,15.42
2023-05-14T00:21:22.709Z,15.27
2023-05-14T00:24:24.673Z,15.27
2023-05-14T00:27:26.080Z,15.30
2023-05-14T00:30:27.539Z,15.43
2023-05-14T00:33:28.943Z,15.38
2023-05-14T00:36:31.311Z,15.35
2023-05-14T00:39:32.823Z,15.38
2023-05-14T00:42:34.703Z,15.37
2023-05-14T00:45:36.305Z,15.41
2023-05-14T00:48:38.022Z,15.43
2023-05-14T00:51:41.323Z,15.43
2023-05-14T00:54:42.834Z,15.45
2023-05-14T00:57:44.652Z,15.41
2023-05-14T01:00:46.081Z,15.47
2023-05-14T01:03:48.974Z,15.52
2023-05-14T01:07:12.066Z,15.53
2023-05-14T01:10:21.754Z,15.57
2023-05-14T01:13:33.630Z,15.56
2023-05-14T01:16:37.301Z,15.48
2023-05-14T01:19:44.214Z,15.51
2023-05-14T01:22:46.318Z,15.44
2023-05-14T01:25:47.765Z,15.26
2023-05-14T01:28:51.624Z,15.13
2023-05-14T01:31:57.220Z,15.01
2023-05-14T01:35:00.361Z,14.89
2023-05-14T01:38:06.656Z,14.92
2023-05-14T01:41:08.306Z,15.01
2023-05-14T01:44:10.478Z,14.97
2023-05-14T01:47:12.270Z,14.97
2023-05-14T01:50:13.692Z,14.95
2023-05-14T01:53:15.229Z,14.82
2023-05-14T01:56:18.324Z,14.75
2023-05-14T01:59:19.741Z,14.67
2023-05-14T02:02:21.637Z,14.60
2023-05-14T02:05:23.051Z,14.58
2023-05-14T02:08:24.453Z,14.50
2023-05-14T02:11:26.218Z,14.43
2023-05-14T02:14:27.610Z,14.42
2023-05-14T02:17:29.236Z,14.27
2023-05-14T02:20:30.633Z,14.34
2023-05-14T02:23:41.001Z,14.36
2023-05-14T02:26:43.333Z,14.45
2023-05-14T02:29:44.990Z,14.51
2023-05-14T02:32:46.430Z,14.43
2023-05-14T02:35:47.881Z,14.34
2023-05-14T02:38:49.288Z,14.40
2023-05-14T02:41:50.685Z,14.41
2023-05-14T02:44:52.421Z,14.42
2023-05-14T02:47:53.852Z,14.43
2023-05-14T02:50:55.289Z,14.40
2023-05-14T02:53:56.835Z,14.35
2023-05-14T02:56:58.224Z,14.16
2023-05-14T02:59:59.679Z,14.24
2023-05-14T03:03:01.618Z,14.26
2023-05-14T03:06:04.296Z,14.22
2023-05-14T03:09:05.724Z,14.17
2023-05-14T03:12:07.732Z,14.22
2023-05-14T03:15:09.644Z,14.15
2023-05-14T03:18:11.014Z,14.11
2023-05-14T03:21:12.471Z,14.14
2023-05-14T03:24:13.843Z,14.16
2023-05-14T03:27:15.270Z,14.15
2023-05-14T03:30:16.702Z,14.13
2023-05-14T03:33:18.093Z,14.13
2023-05-14T03:36:19.513Z,14.11
2023-05-14T03:39:22.399Z,14.15
2023-05-14T03:42:23.879Z,14.20
2023-05-14T03:45:26.803Z,14.17
2023-05-14T03:48:28.407Z,14.15
2023-05-14T03:51:30.074Z,14.16
2023-05-14T03:54:31.624Z,14.06
2023-05-14T03:57:34.610Z,14.02
2023-05-14T04:00:37.132Z,14.05
2023-05-14T04:03:38.741Z,13.85
2023-05-14T04:06:40.334Z,13.86
2023-05-14T04:09:41.729Z,13.87
2023-05-14T04:12:43.269Z,14.00
2023-05-14T04:15:45.410Z,13.92
2023-05-14T04:18:48.168Z,13.93
2023-05-14T04:21:49.926Z,13.97
2023-05-14T04:24:51.961Z,13.93
2023-05-14T04:27:53.460Z,13.94
2023-05-14T04:30:55.346Z,13.98
2023-05-14T04:33:56.871Z,13.97
2023-05-14T04:36:58.252Z,13.87
2023-05-14T04:40:00.855Z,13.92
2023-05-14T04:43:02.537Z,14.02
2023-05-14T04:46:03.983Z,14.01
2023-05-14T04:49:05.430Z,13.92
2023-05-14T04:52:07.047Z,14.32
2023-05-14T04:55:09.025Z,14.06
2023-05-14T04:58:10.413Z,14.20
2023-05-14T05:01:12.127Z,13.99
2023-05-14T05:04:13.601Z,13.98
2023-05-14T05:07:15.049Z,14.10
2023-05-14T05:10:16.516Z,14.04
2023-05-14T05:13:17.912Z,14.15
2023-05-14T05:16:19.304Z,14.25
2023-05-14T05:19:26.440Z,14.30
2023-05-14T05:22:33.857Z,14.34
2023-05-14T05:25:35.236Z,14.27
2023-05-14T05:28:36.600Z,14.14
2023-05-14T05:31:38.130Z,14.21
2023-05-14T05:34:39.558Z,14.30
2023-05-14T05:37:41.407Z,14.47
2023-05-14T05:40:42.888Z,14.63
2023-05-14T05:43:44.325Z,14.71
2023-05-14T05:46:45.843Z,14.88
2023-05-14T05:49:47.290Z,14.99
2023-05-14T05:52:48.697Z,14.91
2023-05-14T05:55:51.635Z,14.99
2023-05-14T05:58:53.125Z,14.95
2023-05-14T06:01:54.605Z,14.90
2023-05-14T06:04:56.038Z,14.93
2023-05-14T06:07:57.500Z,15.08
2023-05-14T06:10:59.143Z,15.22
2023-05-14T06:14:00.620Z,15.26
2023-05-14T06:17:07.478Z,15.29
2023-05-14T06:20:09.861Z,15.24
2023-05-14T06:23:12.156Z,15.21
2023-05-14T06:26:13.610Z,15.22
2023-05-14T06:29:14.970Z,15.21
2023-05-14T06:32:16.818Z,15.25
2023-05-14T06:35:19.103Z,15.44
2023-05-14T06:38:20.596Z,15.45
2023-05-14T06:41:22.584Z,15.56
2023-05-14T06:44:23.981Z,15.55
2023-05-14T06:47:25.470Z,15.81
2023-05-14T06:50:26.878Z,16.21
2023-05-14T06:53:28.270Z,16.13
2023-05-14T06:56:29.637Z,16.33
2023-05-14T06:59:31.099Z,16.49
2023-05-14T07:02:32.549Z,16.43
2023-05-14T07:05:33.984Z,16.24
2023-05-14T07:08:35.996Z,16.37
2023-05-14T07:11:37.460Z,16.28
2023-05-14T07:14:38.851Z,16.18
2023-05-14T07:17:40.420Z,16.24
2023-05-14T07:20:41.852Z,16.43
2023-05-14T07:23:43.282Z,16.69
2023-05-14T07:26:44.713Z,16.74
2023-05-14T07:29:46.117Z,16.87
2023-05-14T07:32:47.586Z,16.74
2023-05-14T07:35:49.166Z,16.73
2023-05-14T07:38:50.629Z,16.65
2023-05-14T07:41:52.039Z,16.72
2023-05-14T07:44:53.510Z,16.56
2023-05-14T07:47:55.007Z,16.46
2023-05-14T07:50:56.487Z,16.32
2023-05-14T07:53:57.872Z,16.19
2023-05-14T07:56:59.246Z,16.27
2023-05-14T08:00:00.650Z,16.44
2023-05-14T08:03:02.304Z,16.99
2023-05-14T08:06:04.362Z,17.46
2023-05-14T08:09:05.814Z,17.42
2023-05-14T08:12:08.245Z,17.64
2023-05-14T08:15:10.135Z,17.42
2023-05-14T08:18:11.593Z,17.26
2023-05-14T08:21:13.110Z,17.08
2023-05-14T08:24:14.971Z,17.07
2023-05-14T08:27:18.970Z,16.88
2023-05-14T08:30:21.324Z,16.80
2023-05-14T08:33:23.283Z,17.28
2023-05-14T08:36:24.743Z,17.16
2023-05-14T08:39:26.154Z,17.04
2023-05-14T08:42:28.736Z,16.96
2023-05-14T08:45:33.954Z,17.21
2023-05-14T08:48:36.040Z,17.39
2023-05-14T08:51:38.349Z,17.40
2023-05-14T08:54:40.433Z,17.64
2023-05-14T08:57:41.968Z,17.77
2023-05-14T09:00:43.427Z,18.13
2023-05-14T09:03:45.741Z,18.30
2023-05-14T09:06:49.884Z,18.13
2023-05-14T09:09:52.602Z,18.26
2023-05-14T09:12:54.266Z,18.58
2023-05-14T09:15:57.228Z,18.38
2023-05-14T09:18:59.851Z,18.03
2023-05-14T09:22:01.351Z,17.94
2023-05-14T09:25:09.232Z,18.17
2023-05-14T09:28:10.745Z,18.09
2023-05-14T09:31:12.309Z,18.13
2023-05-14T09:34:24.317Z,18.25
2023-05-14T09:37:26.253Z,18.49
2023-05-14T09:40:27.883Z,18.74
2023-05-14T09:43:29.578Z,18.46
2023-05-14T09:46:31.831Z,18.28
2023-05-14T09:49:33.728Z,18.26
2023-05-14T09:52:35.504Z,18.49
2023-05-14T09:55:37.899Z,18.54
2023-05-14T09:58:39.482Z,18.46
2023-05-14T10:01:43.612Z,18.32
2023-05-14T10:04:45.266Z,18.22
2023-05-14T10:07:49.698Z,18.12
2023-05-14T10:10:52.202Z,18.04
2023-05-14T10:14:18.171Z,17.94
2023-05-14T10:17:21.700Z,17.93
2023-05-14T10:20:25.059Z,17.89
2023-05-14T10:23:27.275Z,18.06
2023-05-14T10:26:28.814Z,18.04
2023-05-14T10:29:37.662Z,18.16
2023-05-14T10:32:41.719Z,18.15
2023-05-14T10:36:03.127Z,17.95
2023-05-14T10:39:04.982Z,17.88
2023-05-14T10:42:08.102Z,17.98
2023-05-14T10:45:18.667Z,17.92
2023-05-14T10:48:20.557Z,17.91
2023-05-14T10:51:23.369Z,17.83
2023-05-14T10:54:27.822Z,17.74
2023-05-14T10:57:32.173Z,17.87
2023-05-14T11:00:37.732Z,17.91
2023-05-14T11:03:44.316Z,18.18
2023-05-14T11:06:47.324Z,18.34
2023-05-14T11:09:51.056Z,18.44
2023-05-14T11:12:52.765Z,18.52
2023-05-14T11:15:55.649Z,18.45
2023-05-14T11:19:04.654Z,18.34
2023-05-14T11:22:07.842Z,18.46
2023-05-14T11:25:10.920Z,18.61
2023-05-14T11:28:12.308Z,18.66
2023-05-14T11:31:14.086Z,18.76
2023-05-14T11:34:15.549Z,18.48
2023-05-14T11:37:17.865Z,18.58
2023-05-14T11:40:19.871Z,18.60
2023-05-14T11:43:23.766Z,18.81
2023-05-14T11:46:26.079Z,19.07
2023-05-14T11:49:31.009Z,19.14
2023-05-14T11:52:37.847Z,19.19
2023-05-14T11:55:39.799Z,19.30
2023-05-14T11:58:47.970Z,19.11
2023-05-14T12:01:50.747Z,19.34
2023-05-14T12:04:53.459Z,19.60
2023-05-14T12:07:56.086Z,19.68
2023-05-14T12:11:01.262Z,19.82
2023-05-14T12:14:11.118Z,20.04
2023-05-14T12:17:20.779Z,19.83
2023-05-14T12:20:23.468Z,19.84
2023-05-14T12:23:29.812Z,20.02
2023-05-14T12:26:34.648Z,19.62
2023-05-14T12:29:38.978Z,19.58
2023-05-14T12:32:41.297Z,19.42
2023-05-14T12:35:42.974Z,19.20
2023-05-14T12:38:44.468Z,19.05
2023-05-14T12:41:45.842Z,18.99
2023-05-14T12:44:47.207Z,19.07
2023-05-14T12:47:48.635Z,19.07
2023-05-14T12:50:50.172Z,19.18
2023-05-14T12:53:53.898Z,19.31
2023-05-14T12:56:55.301Z,19.44
2023-05-14T12:59:57.574Z,19.37
2023-05-14T13:02:59.003Z,19.52
2023-05-14T13:06:01.239Z,19.46
2023-05-14T13:09:03.216Z,19.59
2023-05-14T13:12:05.111Z,19.70
2023-05-14T13:15:07.102Z,19.80
2023-05-14T13:18:08.585Z,19.90
2023-05-14T13:21:12.566Z,19.71
2023-05-14T13:24:13.971Z,19.77
2023-05-14T13:27:16.060Z,19.93
2023-05-14T13:30:18.359Z,19.97
2023-05-14T13:33:19.845Z,19.96
2023-05-14T13:36:21.303Z,19.79
2023-05-14T13:39:26.797Z,19.60
2023-05-14T13:42:28.291Z,19.70
2023-05-14T13:45:29.998Z,19.50
2023-05-14T13:48:31.672Z,19.49
2023-05-14T13:51:34.939Z,19.70
2023-05-14T13:54:36.994Z,19.82
2023-05-14T13:57:39.639Z,20.20
2023-05-14T14:00:42.616Z,20.16
2023-05-14T14:03:43.987Z,20.03
2023-05-14T14:06:45.814Z,19.83
2023-05-14T14:09:47.262Z,19.84
2023-05-14T14:12:49.051Z,19.90
2023-05-14T14:15:51.136Z,19.54
2023-05-14T14:18:52.791Z,19.43
2023-05-14T14:21:54.300Z,19.38
2023-05-14T14:24:55.760Z,19.53
2023-05-14T14:27:57.165Z,19.48
2023-05-14T14:30:58.641Z,19.63
2023-05-14T14:34:00.155Z,20.05
2023-05-14T14:37:02.534Z,20.17
2023-05-14T14:40:07.136Z,20.03
2023-05-14T14:43:08.677Z,19.77
2023-05-14T14:46:10.933Z,19.72
2023-05-14T14:49:12.390Z,20.48
2023-05-14T14:52:13.839Z,21.15
2023-05-14T14:55:15.348Z,21.55
2023-05-14T14:58:18.636Z,21.85
2023-05-14T15:01:21.221Z,21.74
2023-05-14T15:04:22.685Z,21.35
2023-05-14T15:07:24.217Z,21.35
2023-05-14T15:10:28.806Z,21.79
2023-05-14T15:13:31.685Z,22.19
2023-05-14T15:16:33.117Z,21.99
2023-05-14T15:19:35.071Z,22.12
2023-05-14T15:22:36.996Z,22.40
2023-05-14T15:25:38.581Z,22.71
2023-05-14T15:28:39.962Z,22.90
2023-05-14T15:31:41.976Z,22.77
2023-05-14T15:34:43.444Z,22.36
2023-05-14T15:37:45.460Z,22.43
2023-05-14T15:40:46.993Z,22.38
2023-05-14T15:43:48.475Z,22.13
2023-05-14T15:46:50.017Z,22.93
2023-05-14T15:49:51.535Z,23.01
2023-05-14T15:52:53.536Z,22.76
2023-05-14T15:55:56.463Z,22.43
2023-05-14T15:58:57.883Z,21.99
2023-05-14T16:01:59.926Z,21.80
2023-05-14T16:05:01.377Z,21.38
2023-05-14T16:08:03.609Z,21.64
2023-05-14T16:11:06.199Z,21.59
2023-05-14T16:14:07.617Z,21.62
2023-05-14T16:17:09.328Z,21.98
2023-05-14T16:20:11.600Z,21.93
2023-05-14T16:23:12.986Z,21.99
2023-05-14T16:26:14.420Z,21.92
2023-05-14T16:29:15.816Z,21.67
2023-05-14T16:32:18.015Z,21.58
2023-05-14T16:35:19.556Z,21.16
2023-05-14T16:38:21.027Z,21.19
2023-05-14T16:41:22.434Z,21.28
2023-05-14T16:44:23.818Z,21.50
2023-05-14T16:47:27.088Z,21.49
2023-05-14T16:50:28.728Z,21.06
2023-05-14T16:53:30.232Z,20.89
2023-05-14T16:56:32.320Z,20.81
2023-05-14T16:59:33.699Z,20.94
2023-05-14T17:02:35.146Z,20.97
2023-05-14T17:05:37.647Z,20.67
2023-05-14T17:08:39.022Z,20.41
2023-05-14T17:11:40.414Z,20.48
2023-05-14T17:14:41.841Z,20.46
2023-05-14T17:17:43.676Z,20.21
2023-05-14T17:20:46.251Z,20.05
2023-05-14T17:23:47.938Z,20.03
2023-05-14T17:26:49.481Z,19.99
2023-05-14T17:29:53.466Z,19.95
2023-05-14T17:32:54.996Z,19.91
2023-05-14T17:35:56.435Z,19.88
2023-05-14T17:38:57.882Z,19.84
2023-05-14T17:41:59.277Z,19.89
2023-05-14T17:45:01.174Z,19.89
2023-05-14T17:48:02.625Z,20.07
2023-05-14T17:51:04.977Z,20.23
2023-05-14T17:54:06.374Z,20.37
2023-05-14T17:57:08.142Z,20.47
2023-05-14T18:00:10.028Z,20.50
2023-05-14T18:03:14.959Z,20.49
2023-05-14T18:06:16.837Z,20.38
2023-05-14T18:09:18.335Z,20.38
2023-05-14T18:12:20.044Z,20.29
2023-05-14T18:15:21.598Z,20.22
2023-05-14T18:18:23.911Z,20.16
2023-05-14T18:21:26.406Z,20.08
2023-05-14T18:24:28.116Z,20.09
2023-05-14T18:27:30.222Z,19.99
2023-05-14T18:30:32.220Z,19.91
2023-05-14T18:33:33.612Z,19.84
2023-05-14T18:36:34.998Z,19.74
2023-05-14T18:39:36.369Z,19.64
2023-05-14T18:42:37.872Z,19.53
2023-05-14T18:45:40.020Z,19.48
2023-05-14T18:48:41.614Z,19.32
2023-05-14T18:51:43.008Z,19.25
2023-05-14T18:54:44.389Z,19.27
2023-05-14T18:57:46.082Z,19.05
2023-05-14T19:00:47.481Z,19.07
2023-05-14T19:03:48.942Z,19.09
2023-05-14T19:06:51.062Z,18.88
2023-05-14T19:09:52.933Z,18.82
2023-05-14T19:12:54.360Z,18.78
2023-05-14T19:15:56.129Z,18.66
2023-05-14T19:18:57.754Z,18.54
2023-05-14T19:21:59.286Z,18.51
2023-05-14T19:25:03.224Z,18.44
2023-05-14T19:28:05.989Z,18.43
2023-05-14T19:31:08.266Z,18.49
2023-05-14T19:34:10.010Z,18.56
2023-05-14T19:37:11.639Z,18.55
2023-05-14T19:40:13.068Z,18.41
2023-05-14T19:43:14.518Z,18.28
2023-05-14T19:46:16.440Z,18.14
2023-05-14T19:49:17.820Z,17.96
2023-05-14T19:52:20.192Z,17.81
2023-05-14T19:55:21.557Z,17.77
2023-05-14T19:58:23.548Z,17.79
2023-05-14T20:01:26.576Z,17.80
2023-05-14T20:04:28.098Z,17.80
2023-05-14T20:07:32.038Z,17.81
2023-05-14T20:10:33.502Z,17.70
2023-05-14T20:13:36.383Z,17.49
2023-05-14T20:16:37.844Z,17.61
2023-05-14T20:19:39.246Z,17.71
2023-05-14T20:22:42.690Z,17.82
2023-05-14T20:25:44.199Z,17.78
2023-05-14T20:28:45.654Z,17.66
2023-05-14T20:31:47.015Z,17.60
2023-05-14T20:34:48.377Z,17.39
2023-05-14T20:37:49.780Z,17.27
2023-05-14T20:40:51.134Z,17.12
2023-05-14T20:43:52.526Z,17.14
2023-05-14T20:46:54.020Z,17.15
2023-05-14T20:49:55.559Z,17.11
2023-05-14T20:52:56.926Z,17.10
2023-05-14T20:55:59.001Z,17.04
2023-05-14T20:59:00.421Z,16.96
2023-05-14T21:02:01.994Z,16.89
2023-05-14T21:05:03.750Z,16.82
2023-05-14T21:08:05.398Z,16.74
2023-05-14T21:11:06.782Z,16.68
2023-05-14T21:14:08.158Z,16.60
2023-05-14T21:17:10.593Z,16.52
2023-05-14T21:20:13.478Z,16.47
2023-05-14T21:23:14.987Z,16.50
2023-05-14T21:26:16.405Z,16.57
2023-05-14T21:29:17.768Z,16.64
2023-05-14T21:32:20.091Z,16.61
2023-05-14T21:35:21.521Z,16.54
2023-05-14T21:38:23.117Z,16.39
2023-05-14T21:41:24.571Z,16.26
2023-05-14T21:44:25.941Z,16.31
2023-05-14T21:47:27.562Z,16.22
2023-05-14T21:50:28.977Z,16.36
2023-05-14T21:53:30.432Z,16.43
2023-05-14T21:56:31.882Z,16.37
2023-05-14T21:59:33.774Z,16.26
2023-05-14T22:02:35.217Z,16.18
2023-05-14T22:05:36.656Z,16.26
2023-05-14T22:08:38.032Z,16.33
2023-05-14T22:11:39.406Z,16.24
2023-05-14T22:14:40.861Z,16.35
2023-05-14T22:17:42.391Z,16.31
2023-05-14T22:20:44.108Z,16.31
2023-05-14T22:23:45.487Z,16.35
2023-05-14T22:26:46.865Z,16.32
2023-05-14T22:29:48.239Z,16.20
2023-05-14T22:32:49.660Z,16.04
2023-05-14T22:35:51.295Z,16.02
2023-05-14T22:38:52.653Z,15.92
2023-05-14T22:41:55.047Z,15.88
2023-05-14T22:44:56.633Z,15.78
2023-05-14T22:47:58.345Z,15.76
2023-05-14T22:50:59.763Z,15.79
2023-05-14T22:54:01.125Z,15.78
2023-05-14T22:57:03.445Z,15.73
2023-05-14T23:00:06.935Z,15.70
2023-05-14T23:03:08.410Z,15.53
2023-05-14T23:06:10.029Z,15.50
2023-05-14T23:09:11.413Z,15.48
2023-05-14T23:12:12.789Z,15.55
2023-05-14T23:15:14.306Z,15.51
2023-05-14T23:18:15.782Z,15.32
2023-05-14T23:21:17.219Z,15.32
2023-05-14T23:24:18.590Z,15.41
2023-05-14T23:27:19.982Z,15.49
2023-05-14T23:30:21.380Z,15.56
2023-05-14T23:33:22.761Z,15.56
2023-05-14T23:36:24.283Z,15.49
2023-05-14T23:39:25.847Z,15.47
2023-05-14T23:42:27.212Z,15.39
2023-05-14T23:45:29.055Z,15.30
2023-05-14T23:48:30.970Z,15.30
2023-05-14T23:51:32.331Z,15.25
2023-05-14T23:54:33.815Z,15.11
2023-05-14T23:57:35.604Z,15.08
